AirNav   Pilot Hours Calculator
 
 1252 users online  

23AZ Moreton Airpark
Wickenburg, Arizona, USA

GOING TO WICKENBURG?


FAA INFORMATION EFFECTIVE 11 AUGUST 2022

Location

FAA Identifier: 23AZ
Lat/Long: 34-01-10.1020N 112-49-32.6490W
34-01.168367N 112-49.544150W
34.0194728,-112.8257358
(estimated)
Elevation: 2455 ft. / 748.3 m (surveyed)
Variation: 13E (1985)
From city: 5 miles NW of WICKENBURG, AZ
Time zone: UTC -7 (year round; does not observe DST)
Zip code: 85390

Airport Operations

Airport use: Private use. Permission required prior to landing
Activation date: 07/1958
Control tower: no
ARTCC: ALBUQUERQUE CENTER
FSS: PRESCOTT FLIGHT SERVICE STATION
Attendance: UNATNDD
Wind indicator: yes
Segmented circle: no
Lights: FOR LIRL RY 13/31 CALL 602-315-0323.

Airport Communications

WX AWOS-3 at E25 (3 nm SE): 121.375 (928-684-2487)

Nearby radio navigation aids

VOR radial/distance  VOR name  Freq  Var
BXKr346/34.0BUCKEYE VORTAC110.6014E

Airport Services

Airframe service: NONE
Powerplant service: NONE

Runway Information

Runway 13/31

Dimensions: 4500 x 75 ft. / 1372 x 23 m
Surface: dirt
Runway edge lights: low intensity
RUNWAY 13  RUNWAY 31
Elevation: 2455.0 ft.
Traffic pattern: leftleft
Obstructions: nonehill, 600 ft. from runway

Runway 17/35

Dimensions: 2600 x 72 ft. / 792 x 22 m
Surface: dirt
RUNWAY 17  RUNWAY 35
Traffic pattern: leftleft

Runway 9/27

Dimensions: 2000 x 75 ft. / 610 x 23 m
Surface: dirt
RUNWAY 9  RUNWAY 27
Traffic pattern: leftleft
Obstructions: hill, 200 ft. from runwaynone

Airport Ownership and Management from official FAA records

Ownership: Privately-owned
Owner: MORETON AIRPARK, LLP
7526 E. WHISPERING WINDS ROAD
SCOTTSDALE, AZ 85250
Phone 602-315-0323
Manager: DANIEL P. KROPP
7526 E. WHISPERING WINDS ROAD
SCOTTSDALE, AZ 85250
Phone 602-315-0323

Airport Operational Statistics

Aircraft based on the field: 18
Single engine airplanes: 12
Multi engine airplanes: 2
Jet airplanes: 1
Helicopters: 2
Ultralights: 1
    

Additional Remarks

PERMISSION REQ TO LAND; CALL 602-315-0323 OR DPKROPP@GMAIL.COM
FOR CD CTC LUKE APCH AT 623-856-7361. IF UNA, CTC PHOENIX APCH AT 602-306-2565.

Instrument Procedures

There are no published instrument procedures at 23AZ.

Some nearby airports with instrument procedures:

KLUF - Luke Air Force Base (36 nm SE)
KGEU - Glendale Municipal Airport (40 nm SE)
KDVT - Phoenix Deer Valley Airport (42 nm SE)
KGYR - Phoenix Goodyear Airport (42 nm SE)
KPRC - Prescott Regional Airport - Ernest A Love Field (43 nm NE)
 
Loc | Ops | Rwys | IFR | FBO | Links
Com | Nav | Svcs | Stats | Notes
Area around 23AZ (Moreton Airpark)
 
Road maps at: MapQuest Bing Google
 
Aerial photo
WARNING: Photo may not be current or correct
Aerial photo of 23AZ (Moreton Airpark)
Do you have a better or more recent aerial photo of Moreton Airpark that you would like to share? If so, please send us your photo.

 
Sectional chart

 
Airport distance calculator
Flying to Moreton Airpark? Find the distance to fly.

From to 23AZ

Sunrise and sunset
Times for 16-Aug-2022
 Local
(UTC-7)
 Zulu
(UTC)
Morning civil twilight05:2812:28
Sunrise05:5512:55
Sunset19:1602:16
Evening civil twilight19:4302:43

Current date and time
Zulu (UTC)  17-Aug-2022 01:09:20
Local (UTC-7)  16-Aug-2022 18:09:20
 
METAR
KBXK 
37nm S 
170055Z AUTO 22005KT 10SM CLR 39/17 A2971 RMK A01
KLUF 
38nm SE 
170058Z AUTO 23012G14KT 10SM CLR 39/16 A2970 RMK AO2 SLP041 T03940157 $
KGEU 
39nm SE 
170058Z 23006KT 10SM FEW140 39/15 A2969
KGYR 
43nm SE 
162247Z 27009G17KT 10SM SCT070 SCT180 BKN250 39/18 A2973
KDVT 
43nm SE 
170053Z 26009G15KT 10SM CLR 38/16 A2973 RMK AO2 SLP040 T03830156
KPRC 
43nm NE 
170053Z 25008KT 10SM SCT065 29/14 A3006 RMK AO2 SLP096 T02890139
TAF
KLUF 
38nm SE 
162150Z 1621/1802 24012KT 9999 SCT070 SCT250 QNH2976INS BECMG 1701/1702 VRB06KT 9999 FEW100 SCT250 QNH2978INS BECMG 1720/1721 24009KT 9999 FEW150 FEW250 QNH2976INS TX38/1623Z TN30/1713Z
KDVT 
43nm SE 
161739Z 1618/1718 19006KT P6SM FEW080 FEW150 FM161900 24008KT P6SM FEW080 FEW150 FEW250 FM162300 24010KT P6SM VCSH FEW080 SCT150 SCT250 FM170300 23007KT P6SM FEW150 FEW250 FM170700 VRB05KT P6SM FEW100 FEW200
KPRC 
43nm NE 
161737Z 1618/1718 VRB04KT P6SM BKN110 FM161900 VRB03KT P6SM VCTS SCT050CB TEMPO 1620/1624 VRB10G20KT 5SM TSRA OVC050CB FM170400 19005KT P6SM BKN100
NOTAMs
Click for the latest NOTAMs
NOTAMs are issued by the DoD/FAA and will open in a separate window not controlled by AirNav.

 

 
 

Would you like to see your business listed on this page?

 If your business provides an interesting product or service to pilots, flight crews, aircraft, or users of the Moreton Airpark, you should consider listing it here.  To start the listing process, click on the button below
 
Add a business
 

Other Pages about Moreton Airpark

Update a link
 
Copyright © AirNav, LLC. All rights reserved. Privacy Policy  Contact